sensor_id;sensor_type;location;lat;lon;timestamp;P1;durP1;ratioP1;P2;durP2;ratioP2
8716;SDS011;4395;48.554;8.820;2024-01-16T00:00:45;6.72;;;4.40;;
8716;SDS011;4395;48.554;8.820;2024-01-16T00:02:48;6.75;;;3.88;;
8716;SDS011;4395;48.554;8.820;2024-01-16T00:04:51;6.43;;;3.90;;
8716;SDS011;4395;48.554;8.820;2024-01-16T00:06:54;5.20;;;3.45;;
8716;SDS011;4395;48.554;8.820;2024-01-16T00:08:57;4.65;;;3.67;;
8716;SDS011;4395;48.554;8.820;2024-01-16T00:11:01;5.95;;;4.20;;
8716;SDS011;4395;48.554;8.820;2024-01-16T00:13:04;4.65;;;3.70;;
8716;SDS011;4395;48.554;8.820;2024-01-16T00:15:07;5.55;;;3.55;;
8716;SDS011;4395;48.554;8.820;2024-01-16T00:17:11;6.32;;;3.78;;
8716;SDS011;4395;48.554;8.820;2024-01-16T00:19:14;5.28;;;3.55;;
8716;SDS011;4395;48.554;8.820;2024-01-16T00:21:16;5.72;;;3.20;;
8716;SDS011;4395;48.554;8.820;2024-01-16T00:23:19;5.53;;;3.80;;
8716;SDS011;4395;48.554;8.820;2024-01-16T00:25:22;3.83;;;3.38;;
8716;SDS011;4395;48.554;8.820;2024-01-16T00:27:24;5.93;;;3.75;;
8716;SDS011;4395;48.554;8.820;2024-01-16T00:29:27;5.25;;;3.15;;
8716;SDS011;4395;48.554;8.820;2024-01-16T00:31:32;5.10;;;3.78;;
8716;SDS011;4395;48.554;8.820;2024-01-16T00:33:36;3.83;;;3.17;;
8716;SDS011;4395;48.554;8.820;2024-01-16T00:35:39;4.00;;;3.22;;
8716;SDS011;4395;48.554;8.820;2024-01-16T00:37:42;5.90;;;3.30;;
8716;SDS011;4395;48.554;8.820;2024-01-16T00:39:44;4.65;;;3.35;;
8716;SDS011;4395;48.554;8.820;2024-01-16T00:41:47;6.53;;;3.38;;
8716;SDS011;4395;48.554;8.820;2024-01-16T00:43:49;4.50;;;3.30;;
8716;SDS011;4395;48.554;8.820;2024-01-16T00:45:52;4.25;;;3.20;;
8716;SDS011;4395;48.554;8.820;2024-01-16T00:47:54;4.03;;;3.38;;
8716;SDS011;4395;48.554;8.820;2024-01-16T00:49:59;6.10;;;4.25;;
8716;SDS011;4395;48.554;8.820;2024-01-16T00:52:03;6.35;;;3.67;;
8716;SDS011;4395;48.554;8.820;2024-01-16T00:54:06;5.10;;;3.20;;
8716;SDS011;4395;48.554;8.820;2024-01-16T00:56:09;9.18;;;5.13;;
8716;SDS011;4395;48.554;8.820;2024-01-16T00:58:14;8.50;;;5.63;;
8716;SDS011;4395;48.554;8.820;2024-01-16T01:00:16;10.82;;;6.40;;
8716;SDS011;4395;48.554;8.820;2024-01-16T01:02:19;7.88;;;5.55;;
8716;SDS011;4395;48.554;8.820;2024-01-16T01:04:22;6.72;;;4.38;;
8716;SDS011;4395;48.554;8.820;2024-01-16T01:06:26;6.28;;;4.40;;
8716;SDS011;4395;48.554;8.820;2024-01-16T01:08:29;8.68;;;5.80;;
8716;SDS011;4395;48.554;8.820;2024-01-16T01:10:32;6.53;;;4.95;;
8716;SDS011;4395;48.554;8.820;2024-01-16T01:12:35;6.95;;;4.05;;
8716;SDS011;4395;48.554;8.820;2024-01-16T01:14:38;5.22;;;3.83;;
8716;SDS011;4395;48.554;8.820;2024-01-16T01:16:41;5.03;;;3.95;;
8716;SDS011;4395;48.554;8.820;2024-01-16T01:18:44;5.97;;;5.03;;
8716;SDS011;4395;48.554;8.820;2024-01-16T01:20:47;6.75;;;3.92;;
8716;SDS011;4395;48.554;8.820;2024-01-16T01:22:51;4.18;;;3.33;;
8716;SDS011;4395;48.554;8.820;2024-01-16T01:24:54;4.97;;;3.80;;
8716;SDS011;4395;48.554;8.820;2024-01-16T01:26:57;4.88;;;3.05;;
8716;SDS011;4395;48.554;8.820;2024-01-16T01:29:00;6.30;;;3.88;;
8716;SDS011;4395;48.554;8.820;2024-01-16T01:31:03;4.75;;;3.50;;
8716;SDS011;4395;48.554;8.820;2024-01-16T01:33:06;6.50;;;3.90;;
8716;SDS011;4395;48.554;8.820;2024-01-16T01:35:09;4.93;;;3.20;;
8716;SDS011;4395;48.554;8.820;2024-01-16T01:37:12;5.30;;;4.10;;
8716;SDS011;4395;48.554;8.820;2024-01-16T01:39:16;7.18;;;3.60;;
8716;SDS011;4395;48.554;8.820;2024-01-16T01:41:19;4.68;;;3.38;;
8716;SDS011;4395;48.554;8.820;2024-01-16T01:43:21;6.85;;;3.90;;
8716;SDS011;4395;48.554;8.820;2024-01-16T01:45:25;4.97;;;3.45;;
8716;SDS011;4395;48.554;8.820;2024-01-16T01:47:28;3.65;;;3.05;;
8716;SDS011;4395;48.554;8.820;2024-01-16T01:49:32;8.00;;;3.60;;
8716;SDS011;4395;48.554;8.820;2024-01-16T01:51:35;6.25;;;5.25;;
8716;SDS011;4395;48.554;8.820;2024-01-16T01:53:38;5.88;;;3.50;;
8716;SDS011;4395;48.554;8.820;2024-01-16T01:55:45;5.15;;;3.20;;
8716;SDS011;4395;48.554;8.820;2024-01-16T01:57:48;4.38;;;3.55;;
8716;SDS011;4395;48.554;8.820;2024-01-16T01:59:51;4.38;;;3.25;;
8716;SDS011;4395;48.554;8.820;2024-01-16T02:01:57;6.22;;;5.18;;
8716;SDS011;4395;48.554;8.820;2024-01-16T02:04:00;10.25;;;7.00;;
8716;SDS011;4395;48.554;8.820;2024-01-16T02:06:03;7.57;;;5.75;;
8716;SDS011;4395;48.554;8.820;2024-01-16T02:08:06;12.80;;;8.18;;
8716;SDS011;4395;48.554;8.820;2024-01-16T02:10:10;10.68;;;6.78;;
8716;SDS011;4395;48.554;8.820;2024-01-16T02:12:14;5.47;;;3.92;;
8716;SDS011;4395;48.554;8.820;2024-01-16T02:14:17;6.60;;;3.80;;
8716;SDS011;4395;48.554;8.820;2024-01-16T02:16:20;4.00;;;3.15;;
8716;SDS011;4395;48.554;8.820;2024-01-16T02:18:23;5.43;;;3.30;;
8716;SDS011;4395;48.554;8.820;2024-01-16T02:20:26;5.22;;;3.35;;
8716;SDS011;4395;48.554;8.820;2024-01-16T02:22:29;4.00;;;3.20;;
8716;SDS011;4395;48.554;8.820;2024-01-16T02:24:36;4.78;;;3.42;;
8716;SDS011;4395;48.554;8.820;2024-01-16T02:26:37;5.75;;;3.80;;
8716;SDS011;4395;48.554;8.820;2024-01-16T02:28:40;4.93;;;3.28;;
8716;SDS011;4395;48.554;8.820;2024-01-16T02:30:42;8.32;;;3.88;;
8716;SDS011;4395;48.554;8.820;2024-01-16T02:32:45;8.65;;;4.82;;
8716;SDS011;4395;48.554;8.820;2024-01-16T02:34:48;7.32;;;4.57;;
8716;SDS011;4395;48.554;8.820;2024-01-16T02:36:51;7.97;;;5.65;;
8716;SDS011;4395;48.554;8.820;2024-01-16T02:38:55;5.65;;;3.17;;
8716;SDS011;4395;48.554;8.820;2024-01-16T02:40:59;6.15;;;3.63;;
8716;SDS011;4395;48.554;8.820;2024-01-16T02:43:02;5.03;;;3.25;;
8716;SDS011;4395;48.554;8.820;2024-01-16T02:45:05;5.40;;;3.55;;
8716;SDS011;4395;48.554;8.820;2024-01-16T02:47:08;6.63;;;3.65;;
8716;SDS011;4395;48.554;8.820;2024-01-16T02:49:10;5.22;;;3.47;;
8716;SDS011;4395;48.554;8.820;2024-01-16T02:51:13;4.95;;;3.47;;
8716;SDS011;4395;48.554;8.820;2024-01-16T02:53:17;4.97;;;3.55;;
8716;SDS011;4395;48.554;8.820;2024-01-16T02:55:19;5.78;;;3.30;;
8716;SDS011;4395;48.554;8.820;2024-01-16T02:57:24;6.70;;;4.30;;
8716;SDS011;4395;48.554;8.820;2024-01-16T02:59:28;18.35;;;8.93;;
8716;SDS011;4395;48.554;8.820;2024-01-16T03:01:32;12.75;;;6.68;;
8716;SDS011;4395;48.554;8.820;2024-01-16T03:03:34;15.75;;;7.63;;
8716;SDS011;4395;48.554;8.820;2024-01-16T03:05:37;24.02;;;11.93;;
8716;SDS011;4395;48.554;8.820;2024-01-16T03:07:39;9.73;;;5.85;;
8716;SDS011;4395;48.554;8.820;2024-01-16T03:09:43;6.97;;;4.50;;
8716;SDS011;4395;48.554;8.820;2024-01-16T03:11:46;4.85;;;3.70;;
8716;SDS011;4395;48.554;8.820;2024-01-16T03:13:50;4.03;;;3.22;;
8716;SDS011;4395;48.554;8.820;2024-01-16T03:15:54;4.72;;;3.38;;
8716;SDS011;4395;48.554;8.820;2024-01-16T03:17:57;4.28;;;3.33;;
8716;SDS011;4395;48.554;8.820;2024-01-16T03:20:01;4.93;;;3.97;;
8716;SDS011;4395;48.554;8.820;2024-01-16T03:22:04;7.63;;;5.15;;
8716;SDS011;4395;48.554;8.820;2024-01-16T03:24:06;8.02;;;4.45;;
8716;SDS011;4395;48.554;8.820;2024-01-16T03:26:11;5.40;;;3.50;;
8716;SDS011;4395;48.554;8.820;2024-01-16T03:28:15;5.40;;;3.60;;
8716;SDS011;4395;48.554;8.820;2024-01-16T03:30:19;5.25;;;3.80;;
8716;SDS011;4395;48.554;8.820;2024-01-16T03:32:23;7.60;;;4.50;;
8716;SDS011;4395;48.554;8.820;2024-01-16T03:34:26;9.25;;;5.38;;
8716;SDS011;4395;48.554;8.820;2024-01-16T03:36:29;16.48;;;8.95;;
8716;SDS011;4395;48.554;8.820;2024-01-16T03:38:32;19.85;;;10.77;;
8716;SDS011;4395;48.554;8.820;2024-01-16T03:40:35;13.23;;;8.30;;
8716;SDS011;4395;48.554;8.820;2024-01-16T03:42:38;13.95;;;9.27;;
8716;SDS011;4395;48.554;8.820;2024-01-16T03:44:40;8.50;;;6.20;;
8716;SDS011;4395;48.554;8.820;2024-01-16T03:46:45;6.15;;;4.63;;
8716;SDS011;4395;48.554;8.820;2024-01-16T03:48:47;9.85;;;5.55;;
8716;SDS011;4395;48.554;8.820;2024-01-16T03:50:51;11.32;;;7.32;;
8716;SDS011;4395;48.554;8.820;2024-01-16T03:52:55;7.63;;;5.00;;
8716;SDS011;4395;48.554;8.820;2024-01-16T03:54:57;6.65;;;4.32;;
8716;SDS011;4395;48.554;8.820;2024-01-16T03:57:00;4.85;;;3.65;;
8716;SDS011;4395;48.554;8.820;2024-01-16T03:59:03;4.55;;;3.53;;
8716;SDS011;4395;48.554;8.820;2024-01-16T04:01:06;4.68;;;3.10;;
8716;SDS011;4395;48.554;8.820;2024-01-16T04:03:09;5.18;;;3.65;;
8716;SDS011;4395;48.554;8.820;2024-01-16T04:05:12;9.77;;;6.13;;
8716;SDS011;4395;48.554;8.820;2024-01-16T04:07:15;22.70;;;13.27;;
8716;SDS011;4395;48.554;8.820;2024-01-16T04:09:17;27.23;;;17.10;;
8716;SDS011;4395;48.554;8.820;2024-01-16T04:11:20;14.38;;;9.50;;
8716;SDS011;4395;48.554;8.820;2024-01-16T04:13:23;9.20;;;7.13;;
8716;SDS011;4395;48.554;8.820;2024-01-16T04:15:25;6.82;;;4.57;;
8716;SDS011;4395;48.554;8.820;2024-01-16T04:17:28;5.20;;;3.70;;
8716;SDS011;4395;48.554;8.820;2024-01-16T04:19:32;4.97;;;3.63;;
8716;SDS011;4395;48.554;8.820;2024-01-16T04:21:36;5.55;;;4.88;;
8716;SDS011;4395;48.554;8.820;2024-01-16T04:23:38;8.52;;;5.18;;
8716;SDS011;4395;48.554;8.820;2024-01-16T04:25:43;5.25;;;4.55;;
8716;SDS011;4395;48.554;8.820;2024-01-16T04:27:46;6.30;;;4.05;;
8716;SDS011;4395;48.554;8.820;2024-01-16T04:29:48;4.55;;;3.70;;
8716;SDS011;4395;48.554;8.820;2024-01-16T04:31:50;5.78;;;4.30;;
8716;SDS011;4395;48.554;8.820;2024-01-16T04:33:53;6.85;;;4.55;;
8716;SDS011;4395;48.554;8.820;2024-01-16T04:35:57;6.53;;;4.45;;
8716;SDS011;4395;48.554;8.820;2024-01-16T04:37:59;10.23;;;8.48;;
8716;SDS011;4395;48.554;8.820;2024-01-16T04:40:02;8.55;;;6.55;;
8716;SDS011;4395;48.554;8.820;2024-01-16T04:42:06;4.75;;;3.80;;
8716;SDS011;4395;48.554;8.820;2024-01-16T04:44:08;7.10;;;4.75;;
8716;SDS011;4395;48.554;8.820;2024-01-16T04:46:11;5.85;;;3.92;;
8716;SDS011;4395;48.554;8.820;2024-01-16T04:48:13;4.95;;;3.67;;
8716;SDS011;4395;48.554;8.820;2024-01-16T04:50:15;6.53;;;3.65;;
8716;SDS011;4395;48.554;8.820;2024-01-16T04:52:19;5.25;;;3.85;;
8716;SDS011;4395;48.554;8.820;2024-01-16T04:54:22;5.60;;;3.92;;
8716;SDS011;4395;48.554;8.820;2024-01-16T04:56:25;15.30;;;10.95;;
8716;SDS011;4395;48.554;8.820;2024-01-16T04:58:28;11.50;;;8.85;;
8716;SDS011;4395;48.554;8.820;2024-01-16T05:00:31;5.88;;;4.43;;
8716;SDS011;4395;48.554;8.820;2024-01-16T05:02:33;7.70;;;4.50;;
8716;SDS011;4395;48.554;8.820;2024-01-16T05:04:37;4.85;;;3.53;;
8716;SDS011;4395;48.554;8.820;2024-01-16T05:06:39;6.30;;;4.30;;
8716;SDS011;4395;48.554;8.820;2024-01-16T05:08:43;11.48;;;7.68;;
8716;SDS011;4395;48.554;8.820;2024-01-16T05:10:46;6.63;;;4.82;;
8716;SDS011;4395;48.554;8.820;2024-01-16T05:12:48;6.30;;;4.38;;
8716;SDS011;4395;48.554;8.820;2024-01-16T05:14:51;5.10;;;3.47;;
8716;SDS011;4395;48.554;8.820;2024-01-16T05:16:54;5.05;;;3.45;;
8716;SDS011;4395;48.554;8.820;2024-01-16T05:18:57;3.83;;;3.28;;
8716;SDS011;4395;48.554;8.820;2024-01-16T05:21:00;6.15;;;3.28;;
8716;SDS011;4395;48.554;8.820;2024-01-16T05:23:03;5.03;;;3.50;;
8716;SDS011;4395;48.554;8.820;2024-01-16T05:25:08;5.93;;;3.78;;
8716;SDS011;4395;48.554;8.820;2024-01-16T05:27:10;9.95;;;5.55;;
8716;SDS011;4395;48.554;8.820;2024-01-16T05:29:13;7.97;;;5.20;;
8716;SDS011;4395;48.554;8.820;2024-01-16T05:31:16;9.15;;;6.10;;
8716;SDS011;4395;48.554;8.820;2024-01-16T05:33:21;15.63;;;8.32;;
8716;SDS011;4395;48.554;8.820;2024-01-16T05:35:23;8.77;;;6.43;;
8716;SDS011;4395;48.554;8.820;2024-01-16T05:37:26;7.68;;;4.55;;
8716;SDS011;4395;48.554;8.820;2024-01-16T05:39:30;7.25;;;4.30;;
8716;SDS011;4395;48.554;8.820;2024-01-16T05:41:35;5.90;;;4.18;;
8716;SDS011;4395;48.554;8.820;2024-01-16T05:43:38;5.32;;;4.05;;
8716;SDS011;4395;48.554;8.820;2024-01-16T05:45:41;6.20;;;3.72;;
8716;SDS011;4395;48.554;8.820;2024-01-16T05:47:43;6.25;;;3.90;;
8716;SDS011;4395;48.554;8.820;2024-01-16T05:49:46;6.47;;;4.13;;
8716;SDS011;4395;48.554;8.820;2024-01-16T05:51:48;4.13;;;3.25;;
8716;SDS011;4395;48.554;8.820;2024-01-16T05:53:51;4.85;;;3.88;;
8716;SDS011;4395;48.554;8.820;2024-01-16T05:55:53;4.75;;;3.70;;
8716;SDS011;4395;48.554;8.820;2024-01-16T05:57:57;4.45;;;3.65;;
8716;SDS011;4395;48.554;8.820;2024-01-16T06:00:01;5.20;;;3.70;;
8716;SDS011;4395;48.554;8.820;2024-01-16T06:02:05;6.40;;;4.07;;
8716;SDS011;4395;48.554;8.820;2024-01-16T06:04:09;6.85;;;4.60;;
8716;SDS011;4395;48.554;8.820;2024-01-16T06:06:15;4.65;;;3.70;;
8716;SDS011;4395;48.554;8.820;2024-01-16T06:08:18;4.75;;;3.95;;
8716;SDS011;4395;48.554;8.820;2024-01-16T06:10:21;6.70;;;4.15;;
8716;SDS011;4395;48.554;8.820;2024-01-16T06:12:24;6.47;;;4.18;;
8716;SDS011;4395;48.554;8.820;2024-01-16T06:14:28;4.72;;;4.15;;
8716;SDS011;4395;48.554;8.820;2024-01-16T06:16:31;6.78;;;3.83;;
8716;SDS011;4395;48.554;8.820;2024-01-16T06:18:33;4.07;;;3.40;;
8716;SDS011;4395;48.554;8.820;2024-01-16T06:20:36;4.60;;;3.30;;
8716;SDS011;4395;48.554;8.820;2024-01-16T06:22:39;5.68;;;4.00;;
8716;SDS011;4395;48.554;8.820;2024-01-16T06:24:42;6.15;;;3.92;;
8716;SDS011;4395;48.554;8.820;2024-01-16T06:26:45;4.57;;;3.67;;
8716;SDS011;4395;48.554;8.820;2024-01-16T06:28:47;4.80;;;3.47;;
8716;SDS011;4395;48.554;8.820;2024-01-16T06:30:52;5.03;;;3.50;;
8716;SDS011;4395;48.554;8.820;2024-01-16T06:32:54;5.93;;;4.03;;
8716;SDS011;4395;48.554;8.820;2024-01-16T06:34:58;5.43;;;3.78;;
8716;SDS011;4395;48.554;8.820;2024-01-16T06:37:01;5.47;;;3.67;;
8716;SDS011;4395;48.554;8.820;2024-01-16T06:39:02;5.28;;;3.58;;
8716;SDS011;4395;48.554;8.820;2024-01-16T06:41:05;5.15;;;3.83;;
8716;SDS011;4395;48.554;8.820;2024-01-16T06:43:08;5.10;;;3.42;;
8716;SDS011;4395;48.554;8.820;2024-01-16T06:45:12;5.47;;;3.58;;
8716;SDS011;4395;48.554;8.820;2024-01-16T06:47:17;4.35;;;3.25;;
8716;SDS011;4395;48.554;8.820;2024-01-16T06:49:20;5.30;;;3.45;;
8716;SDS011;4395;48.554;8.820;2024-01-16T06:51:22;5.75;;;3.42;;
8716;SDS011;4395;48.554;8.820;2024-01-16T06:53:25;4.10;;;3.20;;
8716;SDS011;4395;48.554;8.820;2024-01-16T06:55:27;5.35;;;3.58;;
8716;SDS011;4395;48.554;8.820;2024-01-16T06:57:29;3.83;;;2.72;;
8716;SDS011;4395;48.554;8.820;2024-01-16T06:59:32;4.28;;;3.55;;
8716;SDS011;4395;48.554;8.820;2024-01-16T07:01:35;4.10;;;3.13;;
8716;SDS011;4395;48.554;8.820;2024-01-16T07:03:38;5.90;;;3.45;;
8716;SDS011;4395;48.554;8.820;2024-01-16T07:05:41;3.80;;;3.15;;
8716;SDS011;4395;48.554;8.820;2024-01-16T07:07:44;3.42;;;2.88;;
8716;SDS011;4395;48.554;8.820;2024-01-16T07:09:46;3.80;;;2.90;;
8716;SDS011;4395;48.554;8.820;2024-01-16T07:11:49;5.35;;;4.15;;
8716;SDS011;4395;48.554;8.820;2024-01-16T07:13:52;6.70;;;4.35;;
8716;SDS011;4395;48.554;8.820;2024-01-16T07:15:55;6.53;;;3.92;;
8716;SDS011;4395;48.554;8.820;2024-01-16T07:17:57;6.68;;;4.10;;
8716;SDS011;4395;48.554;8.820;2024-01-16T07:20:02;6.15;;;4.57;;
8716;SDS011;4395;48.554;8.820;2024-01-16T07:22:05;5.68;;;3.50;;
8716;SDS011;4395;48.554;8.820;2024-01-16T07:24:07;3.80;;;3.25;;
8716;SDS011;4395;48.554;8.820;2024-01-16T07:26:10;5.90;;;3.60;;
8716;SDS011;4395;48.554;8.820;2024-01-16T07:28:12;3.85;;;3.10;;
8716;SDS011;4395;48.554;8.820;2024-01-16T07:30:16;4.20;;;3.28;;
8716;SDS011;4395;48.554;8.820;2024-01-16T07:32:19;6.63;;;4.20;;
8716;SDS011;4395;48.554;8.820;2024-01-16T07:34:21;6.88;;;4.68;;
8716;SDS011;4395;48.554;8.820;2024-01-16T07:36:26;8.15;;;5.47;;
8716;SDS011;4395;48.554;8.820;2024-01-16T07:38:28;30.25;;;16.50;;
8716;SDS011;4395;48.554;8.820;2024-01-16T07:40:31;20.63;;;11.35;;
8716;SDS011;4395;48.554;8.820;2024-01-16T07:42:36;8.20;;;5.22;;
8716;SDS011;4395;48.554;8.820;2024-01-16T07:44:39;11.20;;;6.57;;
8716;SDS011;4395;48.554;8.820;2024-01-16T07:46:41;6.47;;;4.72;;
8716;SDS011;4395;48.554;8.820;2024-01-16T07:48:44;11.77;;;6.30;;
8716;SDS011;4395;48.554;8.820;2024-01-16T07:50:47;6.30;;;4.00;;
8716;SDS011;4395;48.554;8.820;2024-01-16T07:52:51;5.32;;;3.67;;
8716;SDS011;4395;48.554;8.820;2024-01-16T07:54:54;4.88;;;4.05;;
8716;SDS011;4395;48.554;8.820;2024-01-16T07:56:56;5.95;;;4.35;;
8716;SDS011;4395;48.554;8.820;2024-01-16T07:58:59;5.82;;;4.50;;
8716;SDS011;4395;48.554;8.820;2024-01-16T08:01:01;5.93;;;4.50;;
8716;SDS011;4395;48.554;8.820;2024-01-16T08:03:06;5.35;;;4.78;;
8716;SDS011;4395;48.554;8.820;2024-01-16T08:05:10;5.38;;;4.15;;
8716;SDS011;4395;48.554;8.820;2024-01-16T08:07:13;4.28;;;3.65;;
8716;SDS011;4395;48.554;8.820;2024-01-16T08:09:17;5.35;;;3.70;;
8716;SDS011;4395;48.554;8.820;2024-01-16T08:11:21;8.02;;;3.90;;
8716;SDS011;4395;48.554;8.820;2024-01-16T08:13:24;9.52;;;4.07;;
8716;SDS011;4395;48.554;8.820;2024-01-16T08:15:26;5.80;;;3.20;;
8716;SDS011;4395;48.554;8.820;2024-01-16T08:17:29;4.47;;;3.00;;
8716;SDS011;4395;48.554;8.820;2024-01-16T08:19:32;4.38;;;3.20;;
8716;SDS011;4395;48.554;8.820;2024-01-16T08:21:35;6.13;;;3.80;;
8716;SDS011;4395;48.554;8.820;2024-01-16T08:23:38;4.93;;;3.05;;
8716;SDS011;4395;48.554;8.820;2024-01-16T08:25:42;4.50;;;3.53;;
8716;SDS011;4395;48.554;8.820;2024-01-16T08:27:45;4.00;;;3.60;;
8716;SDS011;4395;48.554;8.820;2024-01-16T08:29:48;5.93;;;3.60;;
8716;SDS011;4395;48.554;8.820;2024-01-16T08:31:51;4.68;;;3.38;;
8716;SDS011;4395;48.554;8.820;2024-01-16T08:33:54;6.95;;;3.58;;
8716;SDS011;4395;48.554;8.820;2024-01-16T08:35:59;3.58;;;3.25;;
8716;SDS011;4395;48.554;8.820;2024-01-16T08:38:00;5.43;;;3.83;;
8716;SDS011;4395;48.554;8.820;2024-01-16T08:40:04;4.85;;;3.83;;
8716;SDS011;4395;48.554;8.820;2024-01-16T08:42:09;5.90;;;3.58;;
8716;SDS011;4395;48.554;8.820;2024-01-16T08:44:13;5.00;;;3.97;;
8716;SDS011;4395;48.554;8.820;2024-01-16T08:46:16;4.00;;;2.97;;
8716;SDS011;4395;48.554;8.820;2024-01-16T08:48:21;5.10;;;3.38;;
8716;SDS011;4395;48.554;8.820;2024-01-16T08:50:24;3.80;;;3.08;;
8716;SDS011;4395;48.554;8.820;2024-01-16T08:52:26;4.07;;;3.17;;
8716;SDS011;4395;48.554;8.820;2024-01-16T08:54:29;4.03;;;3.10;;
8716;SDS011;4395;48.554;8.820;2024-01-16T08:56:32;4.47;;;2.72;;
8716;SDS011;4395;48.554;8.820;2024-01-16T08:58:36;4.05;;;3.45;;
8716;SDS011;4395;48.554;8.820;2024-01-16T09:00:39;4.28;;;3.00;;
8716;SDS011;4395;48.554;8.820;2024-01-16T09:02:41;5.18;;;3.30;;
8716;SDS011;4395;48.554;8.820;2024-01-16T09:04:44;6.28;;;3.75;;
8716;SDS011;4395;48.554;8.820;2024-01-16T09:06:49;5.80;;;3.58;;
8716;SDS011;4395;48.554;8.820;2024-01-16T09:08:52;4.50;;;3.15;;
8716;SDS011;4395;48.554;8.820;2024-01-16T09:10:55;6.00;;;4.90;;
8716;SDS011;4395;48.554;8.820;2024-01-16T09:12:59;9.57;;;5.45;;
8716;SDS011;4395;48.554;8.820;2024-01-16T09:15:03;18.52;;;9.02;;
8716;SDS011;4395;48.554;8.820;2024-01-16T09:17:06;20.38;;;10.13;;
8716;SDS011;4395;48.554;8.820;2024-01-16T09:19:09;15.20;;;8.45;;
8716;SDS011;4395;48.554;8.820;2024-01-16T09:21:12;11.88;;;6.55;;
8716;SDS011;4395;48.554;8.820;2024-01-16T09:23:15;9.70;;;7.30;;
8716;SDS011;4395;48.554;8.820;2024-01-16T09:25:17;12.18;;;7.13;;
8716;SDS011;4395;48.554;8.820;2024-01-16T09:27:20;7.88;;;5.05;;
8716;SDS011;4395;48.554;8.820;2024-01-16T09:29:22;7.43;;;4.72;;
8716;SDS011;4395;48.554;8.820;2024-01-16T09:31:27;6.93;;;4.53;;
8716;SDS011;4395;48.554;8.820;2024-01-16T09:33:30;5.72;;;4.22;;
8716;SDS011;4395;48.554;8.820;2024-01-16T09:35:32;5.78;;;4.20;;
8716;SDS011;4395;48.554;8.820;2024-01-16T09:37:36;5.28;;;3.97;;
8716;SDS011;4395;48.554;8.820;2024-01-16T09:39:39;5.88;;;4.03;;
8716;SDS011;4395;48.554;8.820;2024-01-16T09:41:44;5.25;;;3.55;;
8716;SDS011;4395;48.554;8.820;2024-01-16T09:43:47;6.28;;;4.15;;
8716;SDS011;4395;48.554;8.820;2024-01-16T09:45:50;7.40;;;4.88;;
8716;SDS011;4395;48.554;8.820;2024-01-16T09:47:55;10.30;;;8.18;;
8716;SDS011;4395;48.554;8.820;2024-01-16T09:49:59;8.40;;;6.53;;
8716;SDS011;4395;48.554;8.820;2024-01-16T09:52:01;10.95;;;7.70;;
8716;SDS011;4395;48.554;8.820;2024-01-16T09:54:05;15.65;;;9.07;;
8716;SDS011;4395;48.554;8.820;2024-01-16T09:56:12;15.80;;;8.85;;
8716;SDS011;4395;48.554;8.820;2024-01-16T09:58:17;16.20;;;8.88;;
8716;SDS011;4395;48.554;8.820;2024-01-16T10:00:26;10.77;;;6.78;;
8716;SDS011;4395;48.554;8.820;2024-01-16T10:02:30;10.88;;;7.32;;
8716;SDS011;4395;48.554;8.820;2024-01-16T10:04:35;10.82;;;6.75;;
8716;SDS011;4395;48.554;8.820;2024-01-16T10:06:38;14.63;;;8.63;;
8716;SDS011;4395;48.554;8.820;2024-01-16T10:08:42;12.68;;;7.82;;
8716;SDS011;4395;48.554;8.820;2024-01-16T10:10:44;9.10;;;6.45;;
8716;SDS011;4395;48.554;8.820;2024-01-16T10:12:50;7.05;;;5.13;;
8716;SDS011;4395;48.554;8.820;2024-01-16T10:14:53;6.25;;;4.00;;
8716;SDS011;4395;48.554;8.820;2024-01-16T10:17:00;6.97;;;4.82;;
8716;SDS011;4395;48.554;8.820;2024-01-16T10:19:07;6.57;;;5.38;;
8716;SDS011;4395;48.554;8.820;2024-01-16T10:21:19;6.82;;;6.00;;
8716;SDS011;4395;48.554;8.820;2024-01-16T10:23:23;8.48;;;5.80;;
8716;SDS011;4395;48.554;8.820;2024-01-16T10:25:26;5.63;;;4.72;;
8716;SDS011;4395;48.554;8.820;2024-01-16T10:27:29;7.13;;;5.32;;
8716;SDS011;4395;48.554;8.820;2024-01-16T10:29:32;7.07;;;6.30;;
8716;SDS011;4395;48.554;8.820;2024-01-16T10:31:50;5.72;;;4.53;;
8716;SDS011;4395;48.554;8.820;2024-01-16T10:33:53;6.45;;;4.82;;
8716;SDS011;4395;48.554;8.820;2024-01-16T10:36:07;6.70;;;5.07;;
8716;SDS011;4395;48.554;8.820;2024-01-16T10:38:11;5.85;;;4.70;;
8716;SDS011;4395;48.554;8.820;2024-01-16T10:40:23;6.50;;;4.38;;
8716;SDS011;4395;48.554;8.820;2024-01-16T10:42:29;6.18;;;4.78;;
8716;SDS011;4395;48.554;8.820;2024-01-16T10:44:30;5.15;;;4.20;;
8716;SDS011;4395;48.554;8.820;2024-01-16T10:46:34;6.57;;;4.72;;
8716;SDS011;4395;48.554;8.820;2024-01-16T10:48:36;7.65;;;4.75;;
8716;SDS011;4395;48.554;8.820;2024-01-16T10:50:40;7.65;;;5.53;;
8716;SDS011;4395;48.554;8.820;2024-01-16T10:52:46;8.88;;;6.22;;
8716;SDS011;4395;48.554;8.820;2024-01-16T10:54:51;7.88;;;5.90;;
8716;SDS011;4395;48.554;8.820;2024-01-16T10:56:57;19.10;;;9.43;;
8716;SDS011;4395;48.554;8.820;2024-01-16T10:59:02;22.13;;;11.82;;
8716;SDS011;4395;48.554;8.820;2024-01-16T11:01:14;33.80;;;13.77;;
8716;SDS011;4395;48.554;8.820;2024-01-16T11:03:18;19.17;;;8.95;;
8716;SDS011;4395;48.554;8.820;2024-01-16T11:05:23;11.10;;;6.93;;
8716;SDS011;4395;48.554;8.820;2024-01-16T11:07:28;21.52;;;10.68;;
8716;SDS011;4395;48.554;8.820;2024-01-16T11:09:31;15.70;;;9.38;;
8716;SDS011;4395;48.554;8.820;2024-01-16T11:11:37;13.68;;;8.13;;
8716;SDS011;4395;48.554;8.820;2024-01-16T11:13:42;12.88;;;8.50;;
8716;SDS011;4395;48.554;8.820;2024-01-16T11:15:48;9.38;;;6.38;;
8716;SDS011;4395;48.554;8.820;2024-01-16T11:17:52;7.10;;;5.57;;
8716;SDS011;4395;48.554;8.820;2024-01-16T11:19:56;11.15;;;7.70;;
8716;SDS011;4395;48.554;8.820;2024-01-16T11:22:21;8.60;;;6.53;;
8716;SDS011;4395;48.554;8.820;2024-01-16T11:24:24;9.50;;;6.68;;
8716;SDS011;4395;48.554;8.820;2024-01-16T11:26:27;15.23;;;7.95;;
8716;SDS011;4395;48.554;8.820;2024-01-16T11:28:36;9.43;;;5.82;;
8716;SDS011;4395;48.554;8.820;2024-01-16T11:30:39;6.22;;;5.20;;
8716;SDS011;4395;48.554;8.820;2024-01-16T11:32:42;6.25;;;4.80;;
8716;SDS011;4395;48.554;8.820;2024-01-16T11:34:52;8.30;;;4.53;;
8716;SDS011;4395;48.554;8.820;2024-01-16T11:36:57;6.65;;;5.28;;
8716;SDS011;4395;48.554;8.820;2024-01-16T11:39:02;6.75;;;5.03;;
8716;SDS011;4395;48.554;8.820;2024-01-16T11:41:06;8.73;;;5.45;;
8716;SDS011;4395;48.554;8.820;2024-01-16T11:45:48;6.57;;;5.05;;
8716;SDS011;4395;48.554;8.820;2024-01-16T11:48:07;5.53;;;4.88;;
8716;SDS011;4395;48.554;8.820;2024-01-16T11:50:11;8.13;;;4.70;;
8716;SDS011;4395;48.554;8.820;2024-01-16T11:52:39;8.57;;;6.68;;
8716;SDS011;4395;48.554;8.820;2024-01-16T11:54:44;4.88;;;4.38;;
8716;SDS011;4395;48.554;8.820;2024-01-16T12:00:01;5.38;;;3.92;;
8716;SDS011;4395;48.554;8.820;2024-01-16T12:02:18;6.43;;;4.07;;
8716;SDS011;4395;48.554;8.820;2024-01-16T12:04:25;4.38;;;3.78;;
8716;SDS011;4395;48.554;8.820;2024-01-16T12:06:28;4.40;;;3.83;;
8716;SDS011;4395;48.554;8.820;2024-01-16T12:08:30;5.10;;;3.50;;
8716;SDS011;4395;48.554;8.820;2024-01-16T12:10:34;3.63;;;3.25;;
8716;SDS011;4395;48.554;8.820;2024-01-16T12:12:48;5.13;;;3.63;;
8716;SDS011;4395;48.554;8.820;2024-01-16T12:14:52;4.05;;;3.08;;
8716;SDS011;4395;48.554;8.820;2024-01-16T12:17:09;4.32;;;3.55;;
8716;SDS011;4395;48.554;8.820;2024-01-16T12:19:13;4.38;;;3.55;;
8716;SDS011;4395;48.554;8.820;2024-01-16T12:21:16;4.93;;;3.80;;
8716;SDS011;4395;48.554;8.820;2024-01-16T12:23:19;4.50;;;3.72;;
8716;SDS011;4395;48.554;8.820;2024-01-16T12:25:23;5.75;;;3.17;;
8716;SDS011;4395;48.554;8.820;2024-01-16T12:27:46;4.65;;;3.78;;
8716;SDS011;4395;48.554;8.820;2024-01-16T12:29:49;6.78;;;3.40;;
8716;SDS011;4395;48.554;8.820;2024-01-16T12:32:04;5.32;;;3.95;;
8716;SDS011;4395;48.554;8.820;2024-01-16T12:34:09;7.50;;;4.10;;
8716;SDS011;4395;48.554;8.820;2024-01-16T12:36:12;4.97;;;3.35;;
8716;SDS011;4395;48.554;8.820;2024-01-16T12:38:18;5.97;;;3.50;;
8716;SDS011;4395;48.554;8.820;2024-01-16T12:40:21;4.00;;;3.33;;
8716;SDS011;4395;48.554;8.820;2024-01-16T12:42:22;3.25;;;2.60;;
8716;SDS011;4395;48.554;8.820;2024-01-16T12:44:27;4.50;;;2.50;;
8716;SDS011;4395;48.554;8.820;2024-01-16T12:46:30;7.15;;;4.75;;
8716;SDS011;4395;48.554;8.820;2024-01-16T12:48:34;3.65;;;3.20;;
8716;SDS011;4395;48.554;8.820;2024-01-16T12:50:38;3.00;;;2.55;;
8716;SDS011;4395;48.554;8.820;2024-01-16T12:52:41;3.13;;;2.63;;